createdAt,value
2022-10-13T00:01:18.426Z,56.01
2022-10-13T00:03:49.736Z,57.26
2022-10-13T00:06:24.242Z,58.53
2022-10-13T00:08:52.643Z,59.40
2022-10-13T00:27:01.836Z,54.05
2022-10-13T00:29:29.802Z,54.25
2022-10-13T00:31:57.640Z,55.69
2022-10-13T00:34:25.417Z,56.93
2022-10-13T00:36:53.181Z,57.89
2022-10-13T00:39:20.999Z,58.82
2022-10-13T00:41:48.796Z,59.15
2022-10-13T00:44:54.624Z,60.43
2022-10-13T00:47:26.176Z,61.02
2022-10-13T00:49:55.774Z,61.72
2022-10-13T00:52:25.774Z,66.79
2022-10-13T00:54:55.538Z,65.93
2022-10-13T00:57:27.348Z,60.44
2022-10-13T00:59:57.577Z,54.20
2022-10-13T01:02:32.492Z,53.30
2022-10-13T01:05:00.675Z,54.58
2022-10-13T01:07:29.409Z,55.91
2022-10-13T01:09:57.771Z,57.28
2022-10-13T01:12:34.449Z,58.47
2022-10-13T01:15:13.545Z,59.15
2022-10-13T01:18:14.046Z,59.65
2022-10-13T01:20:59.039Z,60.15
2022-10-13T01:23:56.265Z,61.18
2022-10-13T01:26:39.318Z,67.01
2022-10-13T01:29:12.991Z,64.34
2022-10-13T01:32:07.131Z,56.93
2022-10-13T01:34:48.354Z,54.89
2022-10-13T01:37:42.305Z,56.05
2022-10-13T01:40:24.965Z,57.24
2022-10-13T01:43:03.174Z,58.35
2022-10-13T01:45:37.662Z,60.10
2022-10-13T01:48:06.166Z,61.09
2022-10-13T01:50:40.934Z,65.86
2022-10-13T01:53:10.306Z,65.21
2022-10-13T01:55:53.720Z,59.83
2022-10-13T01:58:25.020Z,54.52
2022-10-13T02:01:11.247Z,55.01
2022-10-13T02:04:11.914Z,56.35
2022-10-13T02:06:39.970Z,57.36
2022-10-13T02:09:15.572Z,59.13
2022-10-13T02:11:50.820Z,59.95
2022-10-13T02:14:22.999Z,60.59
2022-10-13T02:16:52.401Z,61.52
2022-10-13T02:19:23.486Z,61.14
2022-10-13T02:21:52.099Z,65.96
2022-10-13T02:24:20.243Z,65.96
2022-10-13T02:26:50.509Z,60.40
2022-10-13T02:29:21.078Z,55.44
2022-10-13T02:31:49.430Z,55.35
2022-10-13T02:34:17.774Z,56.70
2022-10-13T02:36:51.169Z,58.16
2022-10-13T02:39:23.731Z,58.99
2022-10-13T02:41:52.512Z,60.13
2022-10-13T02:44:21.079Z,61.05
2022-10-13T02:46:49.018Z,61.59
2022-10-13T02:49:19.183Z,66.04
2022-10-13T02:51:47.226Z,65.36
2022-10-13T02:54:15.011Z,60.48
2022-10-13T02:56:42.819Z,55.94
2022-10-13T02:59:12.502Z,55.22
2022-10-13T03:01:44.863Z,56.99
2022-10-13T03:04:12.984Z,59.02
2022-10-13T03:06:44.829Z,60.14
2022-10-13T03:09:14.433Z,61.53
2022-10-13T03:11:43.005Z,65.61
2022-10-13T03:14:10.834Z,65.09
2022-10-13T03:17:07.023Z,57.89
2022-10-13T03:19:38.234Z,56.57
2022-10-13T03:22:08.103Z,57.32
2022-10-13T03:24:36.122Z,59.38
2022-10-13T03:27:03.902Z,60.73
2022-10-13T03:29:31.798Z,61.56
2022-10-13T03:32:03.794Z,65.82
2022-10-13T03:34:31.920Z,65.33
2022-10-13T03:37:01.119Z,60.41
2022-10-13T03:39:35.216Z,55.57
2022-10-13T03:42:03.878Z,55.21
2022-10-13T03:44:31.698Z,56.67
2022-10-13T03:47:01.769Z,58.05
2022-10-13T03:49:32.109Z,59.53
2022-10-13T03:51:59.915Z,60.37
2022-10-13T03:54:27.771Z,60.77
2022-10-13T03:56:55.747Z,64.15
2022-10-13T03:59:23.597Z,65.57
2022-10-13T04:01:53.100Z,62.47
2022-10-13T04:04:23.123Z,57.52
2022-10-13T04:06:53.758Z,56.17
2022-10-13T04:09:21.628Z,57.63
2022-10-13T04:11:53.137Z,58.98
2022-10-13T04:14:23.815Z,60.05
2022-10-13T04:16:51.588Z,61.35
2022-10-13T04:19:19.581Z,65.36
2022-10-13T04:21:47.690Z,65.97
2022-10-13T04:24:19.306Z,61.05
2022-10-13T04:26:47.893Z,56.17
2022-10-13T04:29:16.064Z,55.56
2022-10-13T04:31:44.751Z,56.79
2022-10-13T04:34:12.693Z,58.32
2022-10-13T04:36:40.465Z,60.14
2022-10-13T04:39:09.228Z,60.73
2022-10-13T04:41:37.407Z,61.79
2022-10-13T04:44:15.492Z,65.68
2022-10-13T04:57:44.251Z,57.17
2022-10-13T05:00:28.552Z,57.99
2022-10-13T05:03:07.739Z,59.49
2022-10-13T05:05:35.566Z,60.63
2022-10-13T05:08:03.358Z,61.47
2022-10-13T05:10:34.666Z,65.55
2022-10-13T05:13:02.941Z,65.33
2022-10-13T05:15:31.767Z,60.62
2022-10-13T05:18:00.589Z,55.40
2022-10-13T05:20:28.427Z,54.75
2022-10-13T05:22:57.083Z,56.16
2022-10-13T05:25:31.489Z,57.89
2022-10-13T05:28:04.104Z,59.56
2022-10-13T05:30:32.389Z,60.13
2022-10-13T05:43:34.241Z,55.84
2022-10-13T05:46:02.429Z,54.77
2022-10-13T05:48:33.155Z,56.51
2022-10-13T05:51:04.470Z,58.66
2022-10-13T05:53:44.405Z,59.76
2022-10-13T05:56:36.689Z,60.76
2022-10-13T05:59:40.001Z,65.23
2022-10-13T06:02:10.153Z,64.66
2022-10-13T06:04:41.113Z,60.15
2022-10-13T06:07:09.933Z,54.87
2022-10-13T06:09:40.260Z,54.59
2022-10-13T06:12:09.594Z,55.68
2022-10-13T06:14:39.062Z,57.12
2022-10-13T06:17:16.379Z,58.39
2022-10-13T06:19:45.579Z,59.35
2022-10-13T06:22:17.957Z,60.22
2022-10-13T06:24:48.446Z,60.88
2022-10-13T06:27:16.402Z,61.49
2022-10-13T06:29:45.240Z,65.41
2022-10-13T06:32:13.639Z,64.87
2022-10-13T06:34:44.501Z,59.59
2022-10-13T06:37:12.894Z,54.15
2022-10-13T06:39:40.708Z,54.11
2022-10-13T06:42:08.635Z,55.53
2022-10-13T06:44:39.440Z,56.88
2022-10-13T06:47:07.835Z,58.12
2022-10-13T06:49:35.718Z,58.84
2022-10-13T06:52:04.531Z,59.57
2022-10-13T06:54:34.525Z,60.00
2022-10-13T06:57:02.403Z,60.68
2022-10-13T06:59:32.295Z,61.18
2022-10-13T07:02:00.368Z,61.44
2022-10-13T07:04:28.286Z,65.20
2022-10-13T07:06:59.375Z,64.25
2022-10-13T07:09:28.106Z,57.30
2022-10-13T07:11:55.954Z,55.16
2022-10-13T07:14:23.904Z,56.04
2022-10-13T07:16:59.568Z,57.15
2022-10-13T07:19:28.050Z,58.15
2022-10-13T07:21:57.514Z,58.69
2022-10-13T07:24:26.973Z,59.04
2022-10-13T07:26:54.742Z,60.18
2022-10-13T07:29:23.998Z,60.51
2022-10-13T07:31:53.420Z,60.72
2022-10-13T07:34:32.325Z,61.22
2022-10-13T07:37:09.183Z,61.48
2022-10-13T07:39:41.559Z,61.77
2022-10-13T07:42:11.024Z,61.91
2022-10-13T07:44:38.835Z,64.78
2022-10-13T07:47:06.771Z,63.63
2022-10-13T07:49:35.760Z,57.66
2022-10-13T07:52:05.772Z,55.29
2022-10-13T07:54:33.791Z,56.01
2022-10-13T07:57:03.452Z,56.75
2022-10-13T07:59:34.319Z,57.47
2022-10-13T08:02:02.224Z,57.66
2022-10-13T08:04:36.152Z,58.53
2022-10-13T08:07:08.890Z,58.90
2022-10-13T08:09:36.831Z,60.80
2022-10-13T08:12:04.891Z,60.07
2022-10-13T08:14:33.047Z,60.17
2022-10-13T08:17:01.397Z,60.92
2022-10-13T08:19:32.810Z,60.75
2022-10-13T08:22:05.576Z,59.82
2022-10-13T08:25:07.182Z,59.90
2022-10-13T08:27:51.010Z,59.25
2022-10-13T08:30:31.297Z,59.65
2022-10-13T08:33:04.265Z,58.67
2022-10-13T08:35:35.129Z,58.51
2022-10-13T08:38:04.907Z,58.68
2022-10-13T08:40:38.821Z,58.05
2022-10-13T08:43:15.926Z,57.79
2022-10-13T08:45:48.291Z,56.85
2022-10-13T08:48:19.550Z,55.85
2022-10-13T08:50:53.263Z,56.01
2022-10-13T08:53:28.908Z,56.40
2022-10-13T08:56:01.987Z,54.99
2022-10-13T08:58:35.376Z,54.36
2022-10-13T09:01:09.597Z,53.35
2022-10-13T09:03:44.900Z,52.91
2022-10-13T09:06:35.370Z,53.27
2022-10-13T09:09:21.062Z,53.44
2022-10-13T09:11:57.681Z,52.24
2022-10-13T09:15:10.295Z,53.09
2022-10-13T09:17:44.343Z,51.27
2022-10-13T09:20:22.067Z,50.27
2022-10-13T09:23:05.248Z,50.64
2022-10-13T09:25:46.394Z,50.07
2022-10-13T09:28:27.303Z,49.40
2022-10-13T09:31:03.640Z,50.03
2022-10-13T09:33:37.748Z,48.73
2022-10-13T09:36:14.691Z,48.96
2022-10-13T09:39:21.344Z,48.92
2022-10-13T09:41:50.140Z,48.30
2022-10-13T09:44:30.291Z,47.99
2022-10-13T09:47:00.710Z,47.76
2022-10-13T09:49:31.591Z,47.46
2022-10-13T09:52:20.075Z,46.38
2022-10-13T09:54:52.003Z,45.77
2022-10-13T09:57:53.268Z,45.33
2022-10-13T10:00:30.804Z,45.63
2022-10-13T10:03:17.178Z,45.35
2022-10-13T10:05:53.610Z,45.31
2022-10-13T10:08:33.987Z,44.93
2022-10-13T10:11:14.305Z,44.58
2022-10-13T10:13:43.744Z,43.72
2022-10-13T10:17:05.166Z,43.21
2022-10-13T10:19:47.345Z,42.78
2022-10-13T10:22:49.075Z,43.84
2022-10-13T10:30:53.281Z,42.74
2022-10-13T10:38:20.081Z,42.19
2022-10-13T10:42:08.426Z,42.06
2022-10-13T10:56:12.292Z,41.33
2022-10-13T10:59:52.789Z,41.16
2022-10-13T11:02:41.217Z,40.56
2022-10-13T11:05:17.519Z,40.76
2022-10-13T11:07:46.607Z,40.01
2022-10-13T11:10:25.010Z,40.33
2022-10-13T11:12:53.192Z,39.64
2022-10-13T11:15:47.303Z,39.59
2022-10-13T11:29:54.034Z,38.17
2022-10-13T11:32:33.861Z,37.71
2022-10-13T11:41:10.278Z,37.29
2022-10-13T11:43:08.446Z,37.48
2022-10-13T11:51:44.139Z,36.99
2022-10-13T11:54:49.919Z,36.78
2022-10-13T11:57:32.986Z,36.78
2022-10-13T12:00:18.748Z,36.44
2022-10-13T12:06:56.084Z,36.85
2022-10-13T12:09:52.364Z,36.35
2022-10-13T12:12:37.583Z,36.54
2022-10-13T12:16:05.387Z,36.45
2022-10-13T12:19:23.382Z,36.59
2022-10-13T12:21:54.835Z,35.93
2022-10-13T12:24:24.204Z,36.33
2022-10-13T12:26:52.745Z,36.24
2022-10-13T12:29:24.914Z,35.58
2022-10-13T12:31:53.216Z,35.16
2022-10-13T12:34:27.718Z,35.89
2022-10-13T12:37:00.906Z,35.81
2022-10-13T12:39:32.002Z,36.16
2022-10-13T12:42:00.998Z,36.10
2022-10-13T12:44:30.923Z,35.52
2022-10-13T12:47:03.845Z,35.61
2022-10-13T12:49:35.148Z,35.52
2022-10-13T12:52:09.280Z,35.67
2022-10-13T12:54:39.760Z,34.97
2022-10-13T12:57:17.520Z,33.68
2022-10-13T12:59:45.574Z,33.30
2022-10-13T13:02:28.386Z,34.15
2022-10-13T13:04:56.278Z,33.73
2022-10-13T13:07:30.086Z,33.16
2022-10-13T13:10:19.122Z,33.24
2022-10-13T13:12:51.270Z,32.03
2022-10-13T13:15:24.960Z,31.91
2022-10-13T13:17:58.142Z,31.72
2022-10-13T13:20:34.792Z,30.43
2022-10-13T13:23:02.592Z,30.29
2022-10-13T13:25:30.282Z,30.28
2022-10-13T13:27:58.030Z,29.57
2022-10-13T13:30:26.562Z,29.18
2022-10-13T13:32:54.303Z,28.64
2022-10-13T13:35:22.156Z,28.12
2022-10-13T13:37:51.102Z,27.67
2022-10-13T13:40:27.604Z,26.65
2022-10-13T13:42:55.849Z,26.84
2022-10-13T13:45:26.277Z,26.02
2022-10-13T13:47:59.466Z,25.67
2022-10-13T13:50:33.205Z,25.06
2022-10-13T13:53:01.918Z,24.60
2022-10-13T13:55:30.168Z,24.09
2022-10-13T13:57:58.296Z,23.51
2022-10-13T14:00:26.077Z,23.44
2022-10-13T14:02:58.042Z,23.54
2022-10-13T14:05:25.929Z,23.29
2022-10-13T14:07:55.464Z,22.69
2022-10-13T14:10:24.410Z,22.28
2022-10-13T14:12:52.728Z,21.85
2022-10-13T14:15:21.663Z,21.95
2022-10-13T14:17:54.571Z,21.60
2022-10-13T14:20:22.815Z,21.20
2022-10-13T14:22:50.539Z,21.37
2022-10-13T14:25:18.857Z,21.09
2022-10-13T14:27:46.608Z,20.61
2022-10-13T14:30:14.702Z,20.86
2022-10-13T14:32:42.489Z,21.11
2022-10-13T14:35:10.524Z,20.59
2022-10-13T14:37:38.552Z,20.52
2022-10-13T14:40:07.173Z,21.05
2022-10-13T14:42:34.941Z,20.63
2022-10-13T14:45:06.572Z,20.64
2022-10-13T14:47:34.326Z,20.66
2022-10-13T14:50:02.003Z,20.89
2022-10-13T14:52:31.780Z,21.91
2022-10-13T14:54:59.524Z,22.50
2022-10-13T14:57:27.905Z,23.04
2022-10-13T14:59:59.379Z,23.22
2022-10-13T15:02:30.049Z,23.51
2022-10-13T15:04:58.154Z,23.51
2022-10-13T15:07:26.281Z,23.70
2022-10-13T15:10:04.768Z,24.22
2022-10-13T15:12:33.967Z,24.90
2022-10-13T15:15:02.426Z,25.68
2022-10-13T15:17:31.115Z,25.92
2022-10-13T15:19:58.972Z,26.38
2022-10-13T15:22:26.887Z,27.01
2022-10-13T15:24:54.718Z,27.84
2022-10-13T15:27:23.513Z,28.87
2022-10-13T15:29:51.682Z,30.20
2022-10-13T15:32:20.454Z,31.20
2022-10-13T15:34:54.835Z,32.99
2022-10-13T15:37:22.647Z,34.26
2022-10-13T15:39:56.016Z,35.52
2022-10-13T15:42:25.191Z,36.67
2022-10-13T15:45:10.360Z,37.78
2022-10-13T15:47:41.842Z,39.21
2022-10-13T15:50:10.419Z,40.30
2022-10-13T15:52:40.858Z,41.70
2022-10-13T15:55:10.593Z,42.96
2022-10-13T15:57:39.256Z,44.19
2022-10-13T16:00:09.727Z,44.51
2022-10-13T16:02:41.514Z,45.30
2022-10-13T16:05:12.422Z,45.82
2022-10-13T16:07:41.275Z,46.61
2022-10-13T16:10:19.179Z,47.45
2022-10-13T16:12:49.726Z,47.97
2022-10-13T16:15:18.228Z,48.59
2022-10-13T16:17:46.467Z,49.28
2022-10-13T16:20:14.266Z,49.96
2022-10-13T16:22:42.432Z,50.45
2022-10-13T16:25:11.102Z,51.15
2022-10-13T16:27:43.837Z,51.10
2022-10-13T16:30:12.913Z,51.88
2022-10-13T16:32:40.885Z,52.56
2022-10-13T16:35:08.913Z,52.40
2022-10-13T16:37:36.684Z,52.51
2022-10-13T16:40:04.914Z,53.31
2022-10-13T16:42:32.718Z,53.54
2022-10-13T16:45:00.621Z,53.83
2022-10-13T16:47:29.283Z,54.37
2022-10-13T16:49:57.204Z,55.13
2022-10-13T16:52:25.211Z,55.07
2022-10-13T16:54:53.073Z,55.42
2022-10-13T16:57:23.820Z,55.72
2022-10-13T16:59:51.862Z,55.96
2022-10-13T17:02:19.643Z,56.17
2022-10-13T17:04:47.424Z,56.32
2022-10-13T17:07:15.274Z,56.75
2022-10-13T17:09:43.087Z,56.92
2022-10-13T17:12:11.120Z,57.44
2022-10-13T17:14:39.240Z,57.65
2022-10-13T17:17:07.054Z,57.84
2022-10-13T17:19:34.939Z,57.91
2022-10-13T17:22:02.860Z,58.38
2022-10-13T17:24:33.401Z,58.44
2022-10-13T17:27:01.450Z,58.71
2022-10-13T17:29:29.449Z,58.96
2022-10-13T17:31:57.253Z,58.88
2022-10-13T17:34:25.123Z,59.04
2022-10-13T17:36:52.887Z,59.21
2022-10-13T17:39:20.684Z,59.41
2022-10-13T17:41:48.669Z,59.91
2022-10-13T17:44:20.692Z,60.11
2022-10-13T17:46:50.062Z,60.33
2022-10-13T17:49:19.168Z,60.33
2022-10-13T17:51:51.974Z,60.55
2022-10-13T17:54:20.653Z,60.64
2022-10-13T17:56:49.363Z,60.78
2022-10-13T17:59:18.121Z,61.01
2022-10-13T18:01:46.264Z,61.27
2022-10-13T18:04:16.715Z,61.26
2022-10-13T18:06:45.074Z,61.34
2022-10-13T18:09:17.588Z,61.49
2022-10-13T18:11:50.566Z,61.72
2022-10-13T18:14:21.582Z,61.64
2022-10-13T18:16:50.939Z,61.77
2022-10-13T18:19:19.168Z,61.92
2022-10-13T18:21:47.699Z,61.85
2022-10-13T18:24:15.529Z,62.14
2022-10-13T18:26:46.481Z,64.69
2022-10-13T18:29:14.669Z,66.10
2022-10-13T18:31:43.132Z,62.40
2022-10-13T18:34:14.551Z,57.34
2022-10-13T18:36:47.865Z,55.14
2022-10-13T18:39:18.435Z,55.79
2022-10-13T18:41:47.828Z,56.63
2022-10-13T18:44:17.026Z,57.79
2022-10-13T18:46:45.088Z,58.33
2022-10-13T18:49:14.650Z,58.90
2022-10-13T18:51:42.939Z,59.37
2022-10-13T18:54:11.246Z,59.88
2022-10-13T18:56:39.146Z,60.47
2022-10-13T18:59:11.561Z,60.87
2022-10-13T19:01:41.039Z,61.17
2022-10-13T19:04:09.922Z,61.44
2022-10-13T19:06:37.848Z,61.84
2022-10-13T19:09:08.286Z,61.90
2022-10-13T19:11:37.894Z,65.89
2022-10-13T19:14:08.887Z,66.00
2022-10-13T19:16:42.224Z,60.77
2022-10-13T19:19:10.933Z,55.46
2022-10-13T19:21:39.686Z,54.36
2022-10-13T19:24:10.694Z,55.21
2022-10-13T19:26:38.669Z,56.36
2022-10-13T19:29:09.970Z,57.27
2022-10-13T19:31:39.043Z,57.79
2022-10-13T19:34:10.827Z,58.40
2022-10-13T19:36:44.596Z,58.28
2022-10-13T19:39:24.098Z,59.50
2022-10-13T19:41:54.003Z,60.08
2022-10-13T19:44:23.796Z,60.67
2022-10-13T19:46:52.377Z,61.11
2022-10-13T19:49:22.480Z,61.55
2022-10-13T19:51:50.358Z,65.75
2022-10-13T19:54:19.709Z,65.47
2022-10-13T19:56:48.938Z,60.73
2022-10-13T19:59:19.711Z,56.08
2022-10-13T20:01:47.911Z,55.07
2022-10-13T20:04:18.629Z,55.76
2022-10-13T20:06:48.244Z,56.79
2022-10-13T20:09:17.186Z,57.75
2022-10-13T20:11:46.526Z,58.35
2022-10-13T20:14:16.370Z,59.23
2022-10-13T20:16:45.022Z,59.69
2022-10-13T20:19:14.778Z,60.27
2022-10-13T20:21:43.556Z,60.61
2022-10-13T20:24:13.033Z,61.12
2022-10-13T20:26:41.162Z,61.54
2022-10-13T20:29:09.021Z,65.08
2022-10-13T20:31:36.849Z,65.45
2022-10-13T20:34:04.768Z,60.18
2022-10-13T20:36:38.356Z,55.61
2022-10-13T20:39:08.894Z,55.03
2022-10-13T20:41:36.728Z,55.87
2022-10-13T20:44:04.654Z,57.05
2022-10-13T20:46:34.423Z,57.99
2022-10-13T20:49:13.019Z,58.63
2022-10-13T20:51:42.837Z,59.13
2022-10-13T20:54:13.295Z,59.84
2022-10-13T20:56:41.764Z,60.33
2022-10-13T20:59:12.515Z,60.66
2022-10-13T21:01:40.785Z,60.92
2022-10-13T21:04:13.076Z,61.28
2022-10-13T21:06:44.627Z,61.68
2022-10-13T21:09:17.337Z,65.62
2022-10-13T21:11:53.948Z,65.17
2022-10-13T21:14:25.234Z,60.55
2022-10-13T21:16:57.831Z,56.01
2022-10-13T21:19:32.861Z,54.83
2022-10-13T21:22:09.119Z,55.81
2022-10-13T21:24:41.333Z,57.26
2022-10-13T21:27:09.131Z,58.13
2022-10-13T21:29:36.874Z,59.16
2022-10-13T21:32:05.187Z,59.80
2022-10-13T21:34:33.041Z,60.47
2022-10-13T21:37:01.135Z,61.44
2022-10-13T21:39:28.931Z,61.47
2022-10-13T21:41:56.718Z,65.13
2022-10-13T21:44:27.509Z,65.17
2022-10-13T21:46:55.450Z,60.40
2022-10-13T21:49:23.310Z,56.10
2022-10-13T21:51:51.047Z,54.94
2022-10-13T21:54:18.799Z,55.79
2022-10-13T21:56:46.581Z,56.80
2022-10-13T21:59:14.629Z,57.79
2022-10-13T22:01:43.280Z,58.53
2022-10-13T22:04:14.470Z,59.20
2022-10-13T22:06:42.769Z,60.36
2022-10-13T22:09:11.144Z,61.12
2022-10-13T22:11:39.677Z,65.17
2022-10-13T22:14:11.974Z,64.99
2022-10-13T22:16:48.230Z,59.76
2022-10-13T22:19:17.367Z,54.95
2022-10-13T22:21:47.686Z,55.91
2022-10-13T22:24:17.737Z,56.23
2022-10-13T22:26:47.127Z,58.34
2022-10-13T22:29:19.319Z,59.52
2022-10-13T22:31:49.259Z,60.28
2022-10-13T22:34:17.751Z,60.76
2022-10-13T22:36:45.630Z,61.48
2022-10-13T22:39:14.350Z,65.41
2022-10-13T22:41:42.314Z,65.36
2022-10-13T22:44:10.477Z,61.00
2022-10-13T22:46:38.606Z,56.30
2022-10-13T22:49:07.138Z,55.94
2022-10-13T22:51:36.120Z,56.97
2022-10-13T22:54:05.583Z,57.56
2022-10-13T22:56:34.371Z,58.79
2022-10-13T22:59:05.010Z,60.17
2022-10-13T23:01:53.709Z,60.37
2022-10-13T23:04:21.543Z,61.30
2022-10-13T23:06:49.994Z,66.29
2022-10-13T23:09:18.151Z,65.01
2022-10-13T23:11:47.149Z,59.93
2022-10-13T23:14:19.640Z,55.32
2022-10-13T23:16:47.602Z,54.54
2022-10-13T23:19:15.766Z,55.77
2022-10-13T23:21:43.610Z,57.62
2022-10-13T23:24:12.243Z,58.84
2022-10-13T23:26:40.043Z,59.41
2022-10-13T23:29:09.156Z,60.30
2022-10-13T23:31:37.011Z,60.89
2022-10-13T23:34:04.760Z,61.35
2022-10-13T23:36:32.933Z,65.36
2022-10-13T23:39:04.379Z,65.12
2022-10-13T23:41:37.149Z,60.21
2022-10-13T23:44:06.312Z,55.57
2022-10-13T23:46:34.252Z,54.97
2022-10-13T23:49:02.137Z,56.56
2022-10-13T23:51:30.513Z,57.75
2022-10-13T23:53:59.107Z,57.90
2022-10-13T23:56:27.002Z,59.65
2022-10-13T23:58:55.222Z,60.64
